Time;durP1;ratioP1;P1;durP2;ratioP2;P2;SDS_P1;SDS_P2;PMS_P1;PMS_P2;Temp;Humidity;BMP_temperature;BMP_pressure;BME280_temperature;BME280_humidity;BME280_pressure;Samples;Min_cycle;Max_cycle;Signal;HPM_P1;HPM_P2
2021/04/15 00:00:30;;;;;;;11.18;8.10;;;;;;;;;;5057776;28;20211;-96
2021/04/15 00:02:56;;;;;;;10.57;8.65;;;;;;;;;;5052332;28;20206;-94
2021/04/15 00:05:24;;;;;;;10.13;7.85;;;;;;;;;;5054474;28;20866;-95
2021/04/15 00:07:50;;;;;;;10.38;8.30;;;;;;;;;;5062572;28;20248;-94
2021/04/15 00:10:16;;;;;;;10.67;8.80;;;;;;;;;;5061051;28;20201;-94
2021/04/15 00:12:42;;;;;;;8.45;7.57;;;;;;;;;;5072054;28;20453;-94
2021/04/15 00:15:11;;;;;;;9.40;8.05;;;;;;;;;;5054380;28;20434;-94
2021/04/15 00:17:37;;;;;;;10.57;7.93;;;;;;;;;;5045920;28;20214;-96
2021/04/15 00:20:03;;;;;;;11.70;8.50;;;;;;;;;;5045655;28;20213;-94
2021/04/15 00:22:30;;;;;;;10.15;9.00;;;;;;;;;;5056345;28;20207;-96
2021/04/15 00:24:56;;;;;;;11.35;9.05;;;;;;;;;;5063532;28;20205;-94
2021/04/15 00:27:21;;;;;;;11.60;9.60;;;;;;;;;;5049546;28;20236;-94
2021/04/15 00:29:48;;;;;;;9.47;8.40;;;;;;;;;;5053088;28;20451;-96
2021/04/15 00:32:15;;;;;;;11.10;8.88;;;;;;;;;;5054104;28;20471;-94
2021/04/15 00:34:41;;;;;;;10.02;8.57;;;;;;;;;;5063121;28;20259;-95
2021/04/15 00:37:07;;;;;;;10.57;8.50;;;;;;;;;;5047453;28;20213;-96
2021/04/15 00:39:33;;;;;;;10.48;8.70;;;;;;;;;;5062081;28;20210;-94
2021/04/15 00:41:59;;;;;;;9.80;8.25;;;;;;;;;;5055050;28;20199;-95
2021/04/15 00:44:25;;;;;;;11.90;8.65;;;;;;;;;;5052887;28;20185;-94
2021/04/15 00:46:57;;;;;;;11.18;9.50;;;;;;;;;;5057915;28;20198;-95
2021/04/15 00:49:28;;;;;;;12.05;9.05;;;;;;;;;;5047258;28;20229;-95
2021/04/15 00:51:56;;;;;;;13.05;9.48;;;;;;;;;;5046387;28;20240;-95
2021/04/15 00:54:42;;;;;;;12.32;9.35;;;;;;;;;;5063297;28;20203;-95
2021/04/15 00:57:12;;;;;;;15.13;9.75;;;;;;;;;;5054309;28;20348;-94
2021/04/15 00:59:39;;;;;;;11.60;8.73;;;;;;;;;;5052595;28;20711;-95
2021/04/15 01:02:05;;;;;;;12.02;9.00;;;;;;;;;;5045706;28;20221;-94
2021/04/15 01:04:32;;;;;;;10.65;8.70;;;;;;;;;;5053812;28;20213;-93
2021/04/15 01:06:58;;;;;;;13.73;9.10;;;;;;;;;;5049133;28;20208;-94
2021/04/15 01:09:24;;;;;;;11.20;8.73;;;;;;;;;;5060093;28;20206;-93
2021/04/15 01:12:05;;;;;;;10.70;8.95;;;;;;;;;;5056320;28;20459;-96
2021/04/15 01:14:53;;;;;;;11.05;8.85;;;;;;;;;;5049841;28;20958;-96
2021/04/15 01:17:26;;;;;;;13.07;9.43;;;;;;;;;;5036603;28;20289;-94
2021/04/15 01:20:06;;;;;;;10.82;8.50;;;;;;;;;;5054857;28;20194;-95
2021/04/15 01:22:41;;;;;;;13.98;9.18;;;;;;;;;;5044380;28;20212;-94
2021/04/15 01:25:10;;;;;;;10.10;7.90;;;;;;;;;;5049836;28;20214;-94
2021/04/15 01:27:42;;;;;;;10.20;8.38;;;;;;;;;;5046925;28;20220;-96
2021/04/15 01:30:14;;;;;;;10.20;8.10;;;;;;;;;;5025852;28;20208;-95
2021/04/15 01:32:47;;;;;;;10.73;7.63;;;;;;;;;;5044438;28;20216;-95
2021/04/15 01:35:16;;;;;;;11.13;9.07;;;;;;;;;;5047008;28;20338;-93
2021/04/15 01:37:45;;;;;;;12.05;8.32;;;;;;;;;;5046167;28;20208;-95
2021/04/15 01:40:13;;;;;;;12.30;9.70;;;;;;;;;;5050444;28;20750;-94
2021/04/15 01:42:43;;;;;;;11.70;8.52;;;;;;;;;;5044405;28;20206;-96
2021/04/15 01:45:10;;;;;;;11.32;7.72;;;;;;;;;;5054123;28;20924;-95
2021/04/15 01:47:40;;;;;;;11.20;8.55;;;;;;;;;;5052816;28;20289;-96
2021/04/15 01:50:09;;;;;;;12.13;9.32;;;;;;;;;;5059022;28;20209;-96
2021/04/15 01:52:37;;;;;;;15.40;10.40;;;;;;;;;;5064769;28;20216;-96
2021/04/15 01:55:07;;;;;;;14.10;9.18;;;;;;;;;;5055336;28;20187;-95
2021/04/15 01:57:38;;;;;;;11.80;9.02;;;;;;;;;;5049267;28;20201;-96
2021/04/15 02:00:06;;;;;;;9.95;8.63;;;;;;;;;;5058159;28;20205;-96
2021/04/15 02:02:36;;;;;;;13.07;9.38;;;;;;;;;;5059372;28;20770;-96
2021/04/15 02:05:07;;;;;;;13.80;10.40;;;;;;;;;;5046639;28;20271;-96
2021/04/15 02:07:35;;;;;;;12.95;9.43;;;;;;;;;;5052126;28;20231;-95
2021/04/15 02:10:03;;;;;;;9.82;7.25;;;;;;;;;;5045234;28;20205;-94
2021/04/15 02:12:30;;;;;;;11.32;8.80;;;;;;;;;;5050339;28;20206;-96
2021/04/15 02:15:00;;;;;;;11.90;8.80;;;;;;;;;;5057088;28;20210;-96
2021/04/15 02:17:26;;;;;;;14.43;10.20;;;;;;;;;;5049803;28;20584;-95
2021/04/15 02:19:55;;;;;;;14.27;10.30;;;;;;;;;;5052776;28;20200;-96
2021/04/15 02:22:26;;;;;;;12.15;8.82;;;;;;;;;;5044323;28;20213;-94
2021/04/15 02:27:38;;;;;;;14.32;9.60;;;;;;;;;;5048303;28;20221;-96
2021/04/15 02:30:11;;;;;;;13.45;9.15;;;;;;;;;;5053358;28;20211;-95
2021/04/15 02:32:39;;;;;;;13.98;10.15;;;;;;;;;;5057082;28;20189;-96
2021/04/15 02:35:07;;;;;;;13.73;10.00;;;;;;;;;;5056059;28;20195;-95
2021/04/15 02:37:37;;;;;;;12.02;8.85;;;;;;;;;;5061192;28;20227;-95
2021/04/15 02:40:06;;;;;;;14.15;10.05;;;;;;;;;;5054432;28;20230;-96
2021/04/15 02:42:35;;;;;;;13.70;10.20;;;;;;;;;;5058636;28;20207;-95
2021/04/15 02:45:06;;;;;;;13.88;10.15;;;;;;;;;;5055311;28;20278;-95
2021/04/15 02:47:34;;;;;;;18.00;10.68;;;;;;;;;;5055032;28;20309;-96
2021/04/15 02:50:01;;;;;;;16.92;10.23;;;;;;;;;;5060375;28;20204;-96
2021/04/15 02:52:31;;;;;;;13.20;9.30;;;;;;;;;;5052159;28;20208;-94
2021/04/15 02:55:01;;;;;;;14.02;9.85;;;;;;;;;;5057156;28;20215;-95
2021/04/15 02:57:29;;;;;;;15.52;10.60;;;;;;;;;;5054528;28;20593;-95
2021/04/15 02:59:57;;;;;;;12.98;10.27;;;;;;;;;;5045773;28;20212;-95
2021/04/15 03:02:25;;;;;;;12.68;9.93;;;;;;;;;;5049315;28;20229;-94
2021/04/15 03:04:53;;;;;;;12.57;8.70;;;;;;;;;;5059090;28;20207;-94
2021/04/15 03:07:20;;;;;;;10.45;8.40;;;;;;;;;;5058457;28;20197;-95
2021/04/15 03:09:46;;;;;;;12.45;8.75;;;;;;;;;;5063376;28;20207;-94
2021/04/15 03:12:15;;;;;;;13.95;9.80;;;;;;;;;;5053371;28;20212;-95
2021/04/15 03:14:43;;;;;;;12.20;9.60;;;;;;;;;;5053333;28;20215;-94
2021/04/15 03:17:09;;;;;;;14.23;8.85;;;;;;;;;;5054083;28;20236;-94
2021/04/15 03:19:37;;;;;;;11.43;8.40;;;;;;;;;;5055002;28;20215;-95
2021/04/15 03:22:05;;;;;;;13.18;9.80;;;;;;;;;;5061363;28;20200;-95
2021/04/15 03:24:32;;;;;;;12.40;8.25;;;;;;;;;;5056992;28;20212;-95
2021/04/15 03:27:00;;;;;;;15.18;9.70;;;;;;;;;;5047311;28;20247;-95
2021/04/15 03:29:29;;;;;;;11.68;8.30;;;;;;;;;;5055622;28;20249;-95
2021/04/15 03:32:05;;;;;;;13.18;9.02;;;;;;;;;;5057092;28;20208;-95
2021/04/15 03:34:35;;;;;;;10.35;8.45;;;;;;;;;;5051392;28;20199;-95
2021/04/15 03:37:02;;;;;;;13.10;9.35;;;;;;;;;;5063209;28;20286;-94
2021/04/15 03:39:32;;;;;;;13.48;9.43;;;;;;;;;;5055783;28;20207;-96
2021/04/15 03:42:03;;;;;;;13.57;10.07;;;;;;;;;;5060377;28;20204;-96
2021/04/15 03:44:32;;;;;;;14.60;10.00;;;;;;;;;;5058343;28;20216;-94
2021/04/15 03:47:00;;;;;;;15.95;9.27;;;;;;;;;;5063020;28;20193;-94
2021/04/15 03:49:28;;;;;;;13.45;9.68;;;;;;;;;;5065682;28;20223;-96
2021/04/15 03:51:57;;;;;;;17.55;9.82;;;;;;;;;;5054810;28;20199;-95
2021/04/15 03:54:29;;;;;;;15.73;9.60;;;;;;;;;;5054860;28;20212;-94
2021/04/15 03:56:56;;;;;;;12.07;8.95;;;;;;;;;;5051115;28;20318;-95
2021/04/15 03:59:24;;;;;;;14.32;10.13;;;;;;;;;;5055071;28;20200;-95
2021/04/15 04:01:53;;;;;;;16.83;11.27;;;;;;;;;;5047283;28;20211;-94
2021/04/15 04:04:26;;;;;;;22.90;13.20;;;;;;;;;;5054710;28;20198;-95
2021/04/15 04:06:53;;;;;;;19.02;13.20;;;;;;;;;;5023040;28;20236;-94
2021/04/15 04:09:22;;;;;;;18.00;11.57;;;;;;;;;;5050993;28;20223;-94
2021/04/15 04:11:48;;;;;;;18.30;12.60;;;;;;;;;;5045167;28;20209;-95
2021/04/15 04:14:16;;;;;;;22.48;14.35;;;;;;;;;;5059656;28;20212;-94
2021/04/15 04:16:44;;;;;;;20.80;14.18;;;;;;;;;;5057858;28;20273;-92
2021/04/15 04:19:16;;;;;;;22.73;13.82;;;;;;;;;;5064836;28;20237;-94
2021/04/15 04:21:44;;;;;;;21.67;14.10;;;;;;;;;;5057683;28;20208;-94
2021/04/15 04:24:14;;;;;;;20.48;13.90;;;;;;;;;;5044588;28;20777;-93
2021/04/15 04:26:44;;;;;;;19.85;13.23;;;;;;;;;;5053177;28;20208;-94
2021/04/15 04:29:28;;;;;;;17.90;13.02;;;;;;;;;;5052851;28;20243;-94
2021/04/15 04:31:57;;;;;;;19.60;12.75;;;;;;;;;;5049822;28;20205;-94
2021/04/15 04:34:25;;;;;;;23.48;13.18;;;;;;;;;;5048036;28;20733;-94
2021/04/15 04:36:52;;;;;;;19.92;13.10;;;;;;;;;;5052438;28;20604;-94
2021/04/15 04:39:19;;;;;;;18.67;12.48;;;;;;;;;;5053398;28;20208;-94
2021/04/15 04:42:03;;;;;;;20.20;12.23;;;;;;;;;;5054288;28;20212;-94
2021/04/15 04:44:32;;;;;;;22.90;13.23;;;;;;;;;;5053978;28;20604;-93
2021/04/15 04:47:04;;;;;;;21.35;13.73;;;;;;;;;;5058950;28;20299;-93
2021/04/15 04:49:33;;;;;;;19.02;12.90;;;;;;;;;;5055124;28;20258;-94
2021/04/15 04:52:00;;;;;;;18.15;13.35;;;;;;;;;;5065027;28;20202;-93
2021/04/15 04:54:27;;;;;;;21.98;13.85;;;;;;;;;;5057627;28;20185;-93
2021/04/15 04:56:55;;;;;;;16.85;11.70;;;;;;;;;;5063174;28;20264;-94
2021/04/15 04:59:24;;;;;;;17.27;14.00;;;;;;;;;;5067150;28;20199;-93
2021/04/15 05:01:50;;;;;;;12.90;10.52;;;;;;;;;;5056678;28;20198;-93
2021/04/15 05:04:19;;;;;;;39.38;19.85;;;;;;;;;;5052840;28;20200;-94
2021/04/15 05:06:47;;;;;;;14.98;10.82;;;;;;;;;;5052301;28;20211;-93
2021/04/15 05:09:16;;;;;;;14.07;11.45;;;;;;;;;;5055067;28;20231;-94
2021/04/15 05:11:43;;;;;;;21.67;13.40;;;;;;;;;;5050102;28;20215;-93
2021/04/15 05:14:10;;;;;;;25.98;14.50;;;;;;;;;;5048734;28;20199;-93
2021/04/15 05:16:38;;;;;;;17.17;11.95;;;;;;;;;;5052846;28;20205;-93
2021/04/15 05:19:04;;;;;;;14.13;10.77;;;;;;;;;;5054009;28;20209;-93
2021/04/15 05:21:31;;;;;;;18.65;12.95;;;;;;;;;;5053589;28;20200;-93
2021/04/15 05:24:01;;;;;;;13.70;10.30;;;;;;;;;;5054928;28;20204;-94
2021/04/15 05:26:28;;;;;;;12.95;10.68;;;;;;;;;;5055428;28;20217;-94
2021/04/15 05:28:56;;;;;;;18.03;10.47;;;;;;;;;;5054434;28;20229;-92
2021/04/15 05:31:23;;;;;;;11.50;9.00;;;;;;;;;;5047129;28;20443;-94
2021/04/15 05:33:50;;;;;;;13.23;9.60;;;;;;;;;;5052445;28;20265;-93
2021/04/15 05:36:19;;;;;;;12.37;9.00;;;;;;;;;;5063585;28;20446;-94
2021/04/15 05:38:46;;;;;;;16.93;10.63;;;;;;;;;;5060120;28;20741;-94
2021/04/15 05:41:21;;;;;;;15.73;9.50;;;;;;;;;;5054179;28;20881;-92
2021/04/15 05:43:48;;;;;;;10.97;9.10;;;;;;;;;;5052005;28;20458;-91
2021/04/15 05:46:16;;;;;;;17.80;10.13;;;;;;;;;;5059313;28;20461;-92
2021/04/15 05:48:42;;;;;;;10.00;7.60;;;;;;;;;;5053172;28;20489;-92
2021/04/15 05:51:11;;;;;;;11.40;8.20;;;;;;;;;;5061987;28;20459;-92
2021/04/15 05:53:38;;;;;;;11.80;7.90;;;;;;;;;;5042546;28;20470;-94
2021/04/15 05:56:07;;;;;;;9.53;7.17;;;;;;;;;;5051402;28;20460;-93
2021/04/15 05:58:36;;;;;;;10.33;7.40;;;;;;;;;;5050381;28;20523;-94
2021/04/15 06:01:06;;;;;;;9.97;7.43;;;;;;;;;;5052416;28;20455;-94
2021/04/15 06:03:36;;;;;;;7.70;6.47;;;;;;;;;;5042363;28;20442;-94
2021/04/15 06:06:04;;;;;;;8.10;6.77;;;;;;;;;;5054618;28;20446;-94
2021/04/15 06:08:33;;;;;;;8.77;6.80;;;;;;;;;;5051028;28;20500;-95
2021/04/15 06:11:04;;;;;;;8.60;7.07;;;;;;;;;;5053786;28;20477;-95
2021/04/15 06:13:33;;;;;;;8.43;5.80;;;;;;;;;;5040938;28;20462;-94
2021/04/15 06:16:02;;;;;;;9.33;6.00;;;;;;;;;;5034081;28;20454;-94
2021/04/15 06:18:31;;;;;;;8.50;6.17;;;;;;;;;;5051837;28;20446;-94
2021/04/15 06:20:59;;;;;;;5.70;5.17;;;;;;;;;;5055742;28;20478;-94
2021/04/15 06:23:29;;;;;;;6.60;5.77;;;;;;;;;;5052526;28;20483;-94
2021/04/15 06:25:56;;;;;;;6.70;6.00;;;;;;;;;;5052067;28;20447;-94
2021/04/15 06:28:24;;;;;;;6.60;5.83;;;;;;;;;;5048385;28;20509;-95
2021/04/15 06:30:59;;;;;;;5.43;4.93;;;;;;;;;;5040495;28;20458;-95
2021/04/15 06:33:26;;;;;;;5.60;5.10;;;;;;;;;;5040313;28;20451;-94
2021/04/15 06:35:53;;;;;;;6.23;5.63;;;;;;;;;;5044756;28;21092;-93
2021/04/15 06:38:23;;;;;;;5.80;5.20;;;;;;;;;;5042591;28;20494;-93
2021/04/15 06:40:53;;;;;;;6.47;5.83;;;;;;;;;;5046865;28;21017;-94
2021/04/15 06:43:36;;;;;;;6.20;5.60;;;;;;;;;;5058389;28;20460;-93
2021/04/15 06:46:08;;;;;;;7.40;5.93;;;;;;;;;;5059783;28;20442;-95
2021/04/15 06:48:47;;;;;;;7.93;5.40;;;;;;;;;;5042459;28;20506;-94
2021/04/15 06:51:23;;;;;;;8.23;6.17;;;;;;;;;;5046222;28;20462;-94
2021/04/15 06:53:56;;;;;;;9.63;6.33;;;;;;;;;;5048290;28;20482;-93
2021/04/15 06:56:24;;;;;;;7.77;6.50;;;;;;;;;;5051267;28;20834;-91
2021/04/15 06:59:11;;;;;;;6.90;6.07;;;;;;;;;;5048171;28;20522;-92
2021/04/15 07:01:51;;;;;;;7.47;6.67;;;;;;;;;;5036747;28;20533;-89
2021/04/15 07:04:19;;;;;;;7.57;6.73;;;;;;;;;;5052218;28;20489;-91
2021/04/15 07:06:47;;;;;;;8.10;6.50;;;;;;;;;;5048950;28;20457;-90
2021/04/15 07:09:28;;;;;;;11.20;7.23;;;;;;;;;;5050922;28;21238;-93
2021/04/15 07:12:04;;;;;;;7.40;6.70;;;;;;;;;;5038576;28;20484;-92
2021/04/15 07:14:38;;;;;;;8.03;6.80;;;;;;;;;;5053518;28;20461;-95
2021/04/15 07:17:26;;;;;;;12.37;6.20;;;;;;;;;;5046402;28;20462;-96
2021/04/15 07:20:01;;;;;;;7.00;6.17;;;;;;;;;;5054506;28;20447;-95
2021/04/15 07:22:41;;;;;;;8.60;6.73;;;;;;;;;;5050708;28;20446;-96
2021/04/15 07:25:15;;;;;;;12.17;6.93;;;;;;;;;;5047426;28;20849;-95
2021/04/15 07:27:49;;;;;;;9.37;6.97;;;;;;;;;;5045693;28;20478;-94
2021/04/15 07:30:30;;;;;;;7.63;6.70;;;;;;;;;;5035014;28;20450;-94
2021/04/15 07:33:14;;;;;;;7.77;6.93;;;;;;;;;;5063213;28;20451;-94
2021/04/15 07:36:13;;;;;;;4.80;4.30;;;;;;;;;;5054575;28;20448;-95
2021/04/15 07:38:48;;;;;;;6.00;4.07;;;;;;;;;;4987573;28;20479;-93
2021/04/15 07:41:20;;;;;;;5.47;4.07;;;;;;;;;;4981866;28;20449;-96
2021/04/15 07:44:03;;;;;;;4.00;3.70;;;;;;;;;;5032068;28;20446;-94
2021/04/15 07:46:36;;;;;;;4.93;4.30;;;;;;;;;;5063586;28;20522;-96
2021/04/15 07:49:21;;;;;;;6.57;3.70;;;;;;;;;;5052081;28;21199;-92
2021/04/15 07:51:56;;;;;;;4.30;3.90;;;;;;;;;;5053548;28;20455;-92
2021/04/15 07:54:32;;;;;;;4.73;4.23;;;;;;;;;;5044850;28;20447;-95
2021/04/15 07:57:14;;;;;;;5.07;4.57;;;;;;;;;;5048580;28;20501;-93
2021/04/15 07:59:50;;;;;;;7.40;3.80;;;;;;;;;;5057986;28;20458;-94
2021/04/15 08:02:46;;;;;;;4.20;2.60;;;;;;;;;;5056035;28;20791;-96
2021/04/15 08:05:35;;;;;;;4.30;3.90;;;;;;;;;;5000196;28;20459;-94
2021/04/15 08:08:17;;;;;;;5.27;4.40;;;;;;;;;;5063338;28;20466;-96
2021/04/15 08:11:02;;;;;;;6.00;4.50;;;;;;;;;;5044889;28;20459;-96
2021/04/15 08:13:35;;;;;;;6.80;4.60;;;;;;;;;;5068473;28;20486;-94
2021/04/15 08:16:11;;;;;;;4.40;4.00;;;;;;;;;;5037675;28;20471;-92
2021/04/15 08:18:39;;;;;;;5.20;4.70;;;;;;;;;;5063383;28;21031;-92
2021/04/15 08:21:08;;;;;;;5.27;4.03;;;;;;;;;;5061020;28;20435;-92
2021/04/15 08:23:52;;;;;;;4.73;4.33;;;;;;;;;;5048816;28;20457;-93
2021/04/15 08:26:36;;;;;;;4.90;4.40;;;;;;;;;;5046914;28;20456;-93
2021/04/15 08:29:09;;;;;;;6.23;4.30;;;;;;;;;;5010102;28;20544;-93
2021/04/15 08:31:47;;;;;;;4.33;3.93;;;;;;;;;;5053482;28;20484;-93
2021/04/15 08:34:20;;;;;;;5.00;3.70;;;;;;;;;;5053954;28;20520;-94
2021/04/15 08:36:54;;;;;;;3.97;3.67;;;;;;;;;;5054937;28;20448;-93
2021/04/15 08:39:30;;;;;;;3.67;3.37;;;;;;;;;;5056097;28;20535;-94
2021/04/15 08:42:02;;;;;;;4.47;4.07;;;;;;;;;;5045649;28;20458;-95
2021/04/15 08:44:44;;;;;;;5.90;4.13;;;;;;;;;;5056078;28;20450;-92
2021/04/15 08:47:17;;;;;;;5.07;4.03;;;;;;;;;;5051411;28;21069;-95
2021/04/15 08:49:47;;;;;;;4.27;3.90;;;;;;;;;;5059160;28;20518;-93
2021/04/15 08:52:19;;;;;;;4.47;3.97;;;;;;;;;;5048881;28;20459;-95
2021/04/15 08:54:54;;;;;;;5.50;4.50;;;;;;;;;;5046475;28;20455;-95
2021/04/15 08:57:25;;;;;;;4.53;4.13;;;;;;;;;;5057100;28;20465;-94
2021/04/15 08:59:57;;;;;;;4.90;4.40;;;;;;;;;;5043197;28;20443;-95
2021/04/15 09:02:27;;;;;;;5.90;4.90;;;;;;;;;;5049060;28;20441;-91
2021/04/15 09:05:02;;;;;;;4.97;4.50;;;;;;;;;;5041940;28;20472;-94
2021/04/15 09:07:33;;;;;;;4.53;3.97;;;;;;;;;;5053199;28;20458;-94
2021/04/15 09:10:03;;;;;;;4.87;4.47;;;;;;;;;;5059170;28;20456;-90
2021/04/15 09:12:53;;;;;;;6.90;4.90;;;;;;;;;;5052443;28;20460;-95
2021/04/15 09:15:23;;;;;;;6.20;5.20;;;;;;;;;;5039339;28;20461;-93
2021/04/15 09:17:52;;;;;;;4.00;3.70;;;;;;;;;;5028371;28;20455;-94
2021/04/15 09:20:23;;;;;;;4.67;4.27;;;;;;;;;;5044618;28;20470;-96
2021/04/15 09:22:55;;;;;;;4.83;4.30;;;;;;;;;;5059980;28;20434;-96
2021/04/15 09:25:27;;;;;;;4.73;4.40;;;;;;;;;;5042411;28;20446;-95
2021/04/15 09:27:58;;;;;;;7.27;5.77;;;;;;;;;;5062243;28;20476;-96
2021/04/15 09:30:52;;;;;;;5.30;4.80;;;;;;;;;;5037127;28;20456;-96
2021/04/15 09:33:27;;;;;;;7.17;5.70;;;;;;;;;;5014429;28;20449;-96
2021/04/15 09:36:18;;;;;;;6.87;5.87;;;;;;;;;;5055255;28;20455;-96
2021/04/15 09:39:02;;;;;;;6.27;4.93;;;;;;;;;;5043198;28;20458;-95
2021/04/15 09:41:45;;;;;;;4.80;4.30;;;;;;;;;;5048863;28;20531;-96
2021/04/15 09:44:20;;;;;;;5.47;4.97;;;;;;;;;;5050840;28;20445;-93
2021/04/15 09:46:50;;;;;;;4.87;4.40;;;;;;;;;;5054192;28;20496;-95
2021/04/15 09:49:21;;;;;;;4.50;4.10;;;;;;;;;;5061117;28;20560;-94
2021/04/15 09:51:54;;;;;;;4.63;4.23;;;;;;;;;;5053841;28;20456;-95
2021/04/15 09:54:27;;;;;;;4.60;4.20;;;;;;;;;;5061556;28;20435;-94
2021/04/15 09:56:57;;;;;;;5.23;4.53;;;;;;;;;;5058352;28;20458;-96
2021/04/15 09:59:27;;;;;;;5.67;5.10;;;;;;;;;;5043379;28;20443;-96
2021/04/15 10:02:07;;;;;;;4.30;3.90;;;;;;;;;;5057341;28;20505;-96
2021/04/15 10:04:41;;;;;;;5.00;4.50;;;;;;;;;;5060494;28;20452;-96
2021/04/15 10:07:10;;;;;;;5.10;4.70;;;;;;;;;;5038575;28;20466;-95
2021/04/15 10:09:46;;;;;;;4.70;4.30;;;;;;;;;;5062000;28;20512;-96
2021/04/15 10:12:18;;;;;;;5.30;4.80;;;;;;;;;;5057042;28;20831;-96
2021/04/15 10:14:49;;;;;;;7.10;4.83;;;;;;;;;;5057474;28;20464;-94
2021/04/15 10:17:20;;;;;;;5.60;5.10;;;;;;;;;;5046063;28;20457;-96
2021/04/15 10:19:55;;;;;;;5.17;4.63;;;;;;;;;;5064031;28;20461;-95
2021/04/15 10:22:32;;;;;;;5.63;4.50;;;;;;;;;;5047466;28;20446;-96
2021/04/15 10:25:01;;;;;;;8.00;4.83;;;;;;;;;;5048523;28;20451;-95
2021/04/15 10:27:50;;;;;;;4.27;3.97;;;;;;;;;;5042755;28;20450;-94
2021/04/15 10:30:42;;;;;;;9.07;6.20;;;;;;;;;;5064409;28;20469;-96
2021/04/15 10:33:30;;;;;;;4.70;4.30;;;;;;;;;;5055809;28;20450;-96
2021/04/15 10:36:11;;;;;;;5.40;4.40;;;;;;;;;;5051517;28;20477;-94
2021/04/15 10:39:13;;;;;;;5.07;3.93;;;;;;;;;;5044134;28;20470;-96
2021/04/15 10:41:58;;;;;;;4.40;4.00;;;;;;;;;;5047660;28;20445;-96
2021/04/15 10:44:47;;;;;;;4.70;4.27;;;;;;;;;;5036214;28;20458;-96
2021/04/15 10:47:33;;;;;;;4.50;4.10;;;;;;;;;;5062802;28;20431;-96
2021/04/15 10:50:03;;;;;;;5.67;5.07;;;;;;;;;;5062927;28;20511;-96
2021/04/15 10:52:36;;;;;;;4.53;4.20;;;;;;;;;;5076329;28;20473;-96
2021/04/15 10:55:20;;;;;;;4.90;4.33;;;;;;;;;;5098093;22;20456;-96
2021/04/15 10:57:47;;;;;;;6.23;3.83;;;;;;;;;;5222544;23;20473;-96
2021/04/15 11:00:26;;;;;;;4.67;4.27;;;;;;;;;;5074551;28;20449;-96
2021/04/15 11:02:53;;;;;;;5.57;4.20;;;;;;;;;;5063361;28;20464;-96
2021/04/15 11:05:24;;;;;;;4.97;4.30;;;;;;;;;;5077464;28;20507;-96
2021/04/15 11:07:52;;;;;;;4.80;4.40;;;;;;;;;;5076753;28;20464;-95
2021/04/15 11:10:21;;;;;;;5.60;5.00;;;;;;;;;;5075013;28;20517;-96
2021/04/15 11:12:48;;;;;;;5.63;5.10;;;;;;;;;;5072285;28;20467;-96
2021/04/15 11:15:18;;;;;;;5.23;4.53;;;;;;;;;;5044883;28;20442;-96
2021/04/15 11:17:45;;;;;;;5.43;4.93;;;;;;;;;;5071581;28;20442;-96
2021/04/15 11:20:36;;;;;;;5.90;4.57;;;;;;;;;;5069944;28;20477;-96
2021/04/15 11:23:08;;;;;;;5.93;5.43;;;;;;;;;;5059566;28;20503;-96
2021/04/15 11:25:36;;;;;;;7.07;5.87;;;;;;;;;;5066635;22;20494;-96
2021/04/15 11:28:08;;;;;;;5.67;5.17;;;;;;;;;;5062395;28;20457;-96
2021/04/15 11:30:36;;;;;;;5.83;5.33;;;;;;;;;;5065270;28;20446;-96
2021/04/15 11:33:03;;;;;;;6.27;5.67;;;;;;;;;;5065034;28;20449;-96
2021/04/15 11:35:29;;;;;;;6.30;5.70;;;;;;;;;;5063417;28;20477;-96
2021/04/15 11:38:06;;;;;;;6.10;5.50;;;;;;;;;;5054122;28;20462;-96
2021/04/15 11:40:34;;;;;;;5.77;5.27;;;;;;;;;;5052595;28;20458;-96
2021/04/15 11:43:01;;;;;;;6.27;5.67;;;;;;;;;;5066328;28;20435;-95
2021/04/15 11:45:32;;;;;;;5.60;5.10;;;;;;;;;;5069293;28;20453;-96
2021/04/15 11:48:22;;;;;;;5.27;4.87;;;;;;;;;;5078028;23;20500;-96
2021/04/15 11:50:49;;;;;;;4.90;4.50;;;;;;;;;;5064439;28;20446;-96
2021/04/15 11:53:42;;;;;;;5.90;5.40;;;;;;;;;;5070756;22;20494;-96
2021/04/15 11:56:14;;;;;;;5.13;4.63;;;;;;;;;;5018794;28;20480;-96
2021/04/15 11:59:01;;;;;;;5.27;4.50;;;;;;;;;;5073932;28;20457;-96
2021/04/15 12:01:29;;;;;;;4.73;4.30;;;;;;;;;;5070085;28;20457;-96
2021/04/15 12:03:56;;;;;;;5.23;4.73;;;;;;;;;;5070464;28;20426;-96
2021/04/15 12:06:23;;;;;;;5.37;4.87;;;;;;;;;;5075429;28;20461;-96
2021/04/15 12:08:53;;;;;;;4.93;4.27;;;;;;;;;;5074544;28;20462;-96
2021/04/15 12:11:21;;;;;;;5.43;4.57;;;;;;;;;;5067862;28;20469;-96
2021/04/15 12:13:49;;;;;;;5.23;4.73;;;;;;;;;;5065474;28;20500;-96
2021/04/15 12:16:17;;;;;;;4.73;4.33;;;;;;;;;;5067922;28;20450;-96
2021/04/15 12:18:47;;;;;;;5.93;4.50;;;;;;;;;;5068060;28;20904;-94
2021/04/15 12:21:17;;;;;;;5.60;5.17;;;;;;;;;;5066453;28;20442;-95
2021/04/15 12:23:46;;;;;;;6.40;4.83;;;;;;;;;;5064772;28;20454;-96
2021/04/15 12:26:15;;;;;;;5.27;4.40;;;;;;;;;;5066704;28;20438;-96
2021/04/15 12:28:45;;;;;;;6.80;5.00;;;;;;;;;;5071787;28;20493;-94
2021/04/15 12:31:17;;;;;;;4.70;4.30;;;;;;;;;;5069058;28;20454;-96
2021/04/15 12:33:47;;;;;;;4.80;4.40;;;;;;;;;;5067897;28;20449;-96
2021/04/15 12:36:20;;;;;;;6.80;5.10;;;;;;;;;;5070364;28;20437;-96
2021/04/15 12:38:49;;;;;;;5.13;4.73;;;;;;;;;;5072213;28;20434;-95
2021/04/15 12:41:15;;;;;;;5.43;4.50;;;;;;;;;;5071618;28;20491;-96
2021/04/15 12:43:51;;;;;;;5.30;4.37;;;;;;;;;;5045285;28;20516;-96
2021/04/15 12:49:04;;;;;;;4.70;4.33;;;;;;;;;;5072270;28;20482;-96
2021/04/15 12:51:32;;;;;;;4.73;4.33;;;;;;;;;;5061585;23;20643;-96
2021/04/15 12:54:01;;;;;;;4.77;4.37;;;;;;;;;;5055774;28;20461;-95
2021/04/15 12:56:39;;;;;;;5.10;4.27;;;;;;;;;;5072335;28;20454;-96
2021/04/15 12:59:05;;;;;;;5.70;5.10;;;;;;;;;;5071859;28;20446;-97
2021/04/15 13:01:33;;;;;;;6.60;5.37;;;;;;;;;;5074185;28;20438;-95
2021/04/15 13:04:13;;;;;;;6.43;4.83;;;;;;;;;;5056895;28;20446;-96
2021/04/15 13:06:54;;;;;;;5.00;4.30;;;;;;;;;;5076288;28;20458;-96
2021/04/15 13:09:24;;;;;;;6.83;5.10;;;;;;;;;;5075094;28;20504;-93
2021/04/15 13:11:50;;;;;;;5.50;4.50;;;;;;;;;;5070934;28;20450;-96
2021/04/15 13:14:40;;;;;;;5.10;4.60;;;;;;;;;;5044187;28;20437;-94
2021/04/15 13:17:07;;;;;;;5.20;4.80;;;;;;;;;;5069442;28;20477;-96
2021/04/15 13:22:03;;;;;;;8.40;5.87;;;;;;;;;;5046814;28;20482;-96
2021/04/15 13:24:48;;;;;;;6.03;5.47;;;;;;;;;;5093216;22;20497;-93
2021/04/15 13:27:33;;;;;;;5.10;4.50;;;;;;;;;;5070735;28;20509;-96
2021/04/15 13:30:25;;;;;;;5.77;5.27;;;;;;;;;;5074613;28;20488;-96
2021/04/15 13:32:56;;;;;;;7.20;5.07;;;;;;;;;;5056133;28;20445;-96
2021/04/15 13:35:37;;;;;;;5.63;4.47;;;;;;;;;;5070842;28;20480;-95
2021/04/15 13:38:21;;;;;;;11.53;5.03;;;;;;;;;;5062846;28;20503;-96
2021/04/15 13:40:51;;;;;;;8.00;7.20;;;;;;;;;;5040645;28;20438;-96
2021/04/15 13:43:36;;;;;;;5.30;4.90;;;;;;;;;;5056466;28;20450;-96
2021/04/15 13:46:17;;;;;;;8.23;4.97;;;;;;;;;;5060475;28;20899;-96
2021/04/15 13:48:44;;;;;;;5.40;4.30;;;;;;;;;;5069204;28;20465;-96
2021/04/15 13:51:15;;;;;;;6.50;4.40;;;;;;;;;;5068637;28;20422;-94
2021/04/15 13:53:59;;;;;;;6.97;4.70;;;;;;;;;;5068202;28;20462;-96
2021/04/15 13:56:30;;;;;;;5.77;4.77;;;;;;;;;;5067032;28;20881;-97
2021/04/15 13:58:58;;;;;;;5.30;4.00;;;;;;;;;;5051100;28;20450;-95
2021/04/15 14:01:42;;;;;;;5.10;4.50;;;;;;;;;;5070724;28;20449;-96
2021/04/15 14:04:09;;;;;;;4.83;4.33;;;;;;;;;;5075576;28;20470;-96
2021/04/15 14:06:40;;;;;;;4.37;3.97;;;;;;;;;;5064953;28;20449;-96
2021/04/15 14:09:19;;;;;;;7.43;4.00;;;;;;;;;;5073284;28;20521;-96
2021/04/15 14:12:02;;;;;;;6.50;4.60;;;;;;;;;;5071506;28;20450;-95
2021/04/15 14:14:47;;;;;;;5.13;3.90;;;;;;;;;;5066816;28;20464;-95
2021/04/15 14:19:54;;;;;;;6.07;4.70;;;;;;;;;;5058603;22;20494;-94
2021/04/15 14:22:22;;;;;;;4.63;4.23;;;;;;;;;;5050238;22;20487;-96
2021/04/15 14:24:52;;;;;;;6.30;3.93;;;;;;;;;;5048029;28;20453;-93
2021/04/15 14:27:20;;;;;;;4.40;4.00;;;;;;;;;;5051510;28;20454;-96
2021/04/15 14:29:47;;;;;;;4.80;3.63;;;;;;;;;;5047799;28;20512;-96
2021/04/15 14:32:26;;;;;;;6.00;4.03;;;;;;;;;;5067247;28;20449;-96
2021/04/15 14:34:56;;;;;;;7.90;3.47;;;;;;;;;;5086778;23;21743;-96
2021/04/15 14:37:24;;;;;;;5.40;3.50;;;;;;;;;;5066257;28;20450;-95
2021/04/15 14:39:51;;;;;;;6.90;4.33;;;;;;;;;;5065012;28;21242;-95
2021/04/15 14:42:41;;;;;;;5.97;3.97;;;;;;;;;;5066102;28;20454;-94
2021/04/15 14:45:23;;;;;;;4.40;3.80;;;;;;;;;;5063439;28;20488;-96
2021/04/15 14:47:50;;;;;;;4.40;3.60;;;;;;;;;;5070722;28;20450;-96
2021/04/15 14:50:25;;;;;;;10.07;6.40;;;;;;;;;;5068858;28;20472;-96
2021/04/15 14:52:51;;;;;;;5.70;3.93;;;;;;;;;;5054156;23;20487;-96
2021/04/15 14:55:23;;;;;;;5.23;4.07;;;;;;;;;;5046311;28;20444;-93
2021/04/15 14:57:54;;;;;;;3.70;3.03;;;;;;;;;;5045337;28;20456;-95
2021/04/15 15:00:22;;;;;;;4.30;3.87;;;;;;;;;;5039904;28;20486;-95
2021/04/15 15:02:48;;;;;;;4.67;3.57;;;;;;;;;;5044732;28;20445;-94
2021/04/15 15:05:18;;;;;;;4.23;3.80;;;;;;;;;;5044682;28;20442;-94
2021/04/15 15:07:47;;;;;;;6.80;4.50;;;;;;;;;;5044116;28;20465;-94
2021/04/15 15:10:15;;;;;;;7.90;4.17;;;;;;;;;;5042931;28;20495;-94
2021/04/15 15:12:42;;;;;;;8.17;5.10;;;;;;;;;;5045293;28;20448;-95
2021/04/15 15:17:57;;;;;;;6.40;4.70;;;;;;;;;;5054804;28;20434;-96